createdAt,value
2019-03-05T00:00:35.429Z,98615.61
2019-03-05T00:03:38.794Z,98611.13
2019-03-05T00:06:41.837Z,98614.79
2019-03-05T00:09:44.910Z,98620.17
2019-03-05T00:12:48.181Z,98625.31
2019-03-05T00:15:53.361Z,98619.23
2019-03-05T00:18:56.352Z,98625.77
2019-03-05T00:21:59.358Z,98629.37
2019-03-05T00:25:09.308Z,98629.97
2019-03-05T00:28:36.260Z,98632.27
2019-03-05T00:31:40.472Z,98632.50
2019-03-05T00:35:26.103Z,98647.27
2019-03-05T00:39:32.486Z,98643.73
2019-03-05T00:43:01.929Z,98650.73
2019-03-05T00:46:53.989Z,98655.62
2019-03-05T00:50:50.700Z,98655.70
2019-03-05T00:55:33.910Z,98657.80
2019-03-05T00:59:09.192Z,98643.73
2019-03-05T01:03:19.064Z,98666.97
2019-03-05T01:06:23.896Z,98666.27
2019-03-05T01:09:27.313Z,98662.16
2019-03-05T01:12:30.609Z,98649.41
2019-03-05T01:15:33.619Z,98663.06
2019-03-05T01:18:36.560Z,98661.66
2019-03-05T01:21:39.764Z,98683.33
2019-03-05T01:24:43.198Z,98697.80
2019-03-05T01:27:46.408Z,98664.12
2019-03-05T01:31:04.925Z,98660.02
2019-03-05T01:34:12.017Z,98678.41
2019-03-05T01:37:15.258Z,98669.09
2019-03-05T01:40:28.220Z,98664.88
2019-03-05T01:43:32.473Z,98673.48
2019-03-05T01:46:35.521Z,98670.77
2019-03-05T01:49:38.474Z,98672.32
2019-03-05T01:52:41.675Z,98673.15
2019-03-05T01:55:44.934Z,98677.58
2019-03-05T01:58:48.097Z,98675.41
2019-03-05T02:01:51.323Z,98675.30
2019-03-05T02:04:54.544Z,98668.06
2019-03-05T02:07:57.501Z,98671.76
2019-03-05T02:11:00.409Z,98674.95
2019-03-05T02:14:03.498Z,98674.39
2019-03-05T02:17:06.436Z,98675.21
2019-03-05T02:20:13.970Z,98685.81
2019-03-05T02:23:28.715Z,98684.95
2019-03-05T02:28:01.357Z,98684.58
2019-03-05T02:31:58.449Z,98682.51
2019-03-05T02:35:58.600Z,98689.27
2019-03-05T02:39:53.737Z,98688.82
2019-03-05T02:44:05.356Z,98686.76
2019-03-05T02:47:46.663Z,98686.30
2019-03-05T02:51:29.313Z,98691.22
2019-03-05T02:55:12.608Z,98683.91
2019-03-05T02:58:14.244Z,98697.45
2019-03-05T03:01:30.836Z,98694.27
2019-03-05T03:04:38.250Z,98694.17
2019-03-05T03:07:41.203Z,98691.13
2019-03-05T03:10:44.771Z,98699.98
2019-03-05T03:13:47.767Z,98702.31
2019-03-05T03:16:50.745Z,98691.07
2019-03-05T03:19:55.015Z,98706.36
2019-03-05T03:22:58.196Z,98709.55
2019-03-05T03:26:01.336Z,98711.23
2019-03-05T03:29:04.824Z,98697.86
2019-03-05T03:32:08.270Z,98702.91
2019-03-05T03:35:13.058Z,98711.55
2019-03-05T03:38:16.541Z,98715.08
2019-03-05T03:41:19.712Z,98710.79
2019-03-05T03:44:23.192Z,98702.11
2019-03-05T03:47:26.434Z,98710.45
2019-03-05T03:50:30.672Z,98707.92
2019-03-05T03:53:33.932Z,98715.84
2019-03-05T03:56:37.123Z,98712.59
2019-03-05T03:59:41.058Z,98713.55
2019-03-05T04:02:45.457Z,98734.06
2019-03-05T04:05:48.632Z,98722.06
2019-03-05T04:08:51.848Z,98725.73
2019-03-05T04:11:54.759Z,98737.01
2019-03-05T04:14:57.695Z,98732.75
2019-03-05T04:18:00.988Z,98732.44
2019-03-05T04:21:03.948Z,98728.08
2019-03-05T04:24:07.957Z,98723.55
2019-03-05T04:27:11.140Z,98735.90
2019-03-05T04:30:14.111Z,98736.08
2019-03-05T04:33:17.417Z,98737.01
2019-03-05T04:36:20.987Z,98720.37
2019-03-05T04:39:24.161Z,98725.18
2019-03-05T04:42:27.134Z,98732.44
2019-03-05T04:45:57.773Z,98735.44
2019-03-05T04:49:35.254Z,98726.84
2019-03-05T04:52:38.571Z,98742.05
2019-03-05T04:55:41.480Z,98725.52
2019-03-05T04:58:44.696Z,98720.98
2019-03-05T05:01:47.994Z,98722.38
2019-03-05T05:04:50.915Z,98723.83
2019-03-05T05:07:54.152Z,98727.81
2019-03-05T05:10:57.074Z,98725.87
2019-03-05T05:14:00.277Z,98729.57
2019-03-05T05:17:03.467Z,98725.28
2019-03-05T05:20:06.442Z,98741.53
2019-03-05T05:23:09.889Z,98741.43
2019-03-05T05:26:13.374Z,98737.73
2019-03-05T05:29:16.365Z,98737.00
2019-03-05T05:32:19.294Z,98742.30
2019-03-05T05:35:22.227Z,98740.91
2019-03-05T05:38:25.424Z,98735.23
2019-03-05T05:41:28.974Z,98741.70
2019-03-05T05:44:32.213Z,98747.34
2019-03-05T05:47:35.709Z,98747.04
2019-03-05T05:50:39.243Z,98744.58
2019-03-05T05:53:42.180Z,98741.19
2019-03-05T05:56:45.379Z,98742.78
2019-03-05T05:59:48.323Z,98747.83
2019-03-05T06:02:51.376Z,98742.64
2019-03-05T06:05:54.896Z,98733.06
2019-03-05T06:08:58.096Z,98741.54
2019-03-05T06:12:01.156Z,98734.17
2019-03-05T06:15:04.781Z,98732.58
2019-03-05T06:18:08.233Z,98744.72
2019-03-05T06:21:11.223Z,98757.17
2019-03-05T06:24:14.865Z,98742.72
2019-03-05T06:27:18.444Z,98749.42
2019-03-05T06:30:21.437Z,98744.57
2019-03-05T06:33:24.370Z,98756.06
2019-03-05T06:36:49.830Z,98753.09
2019-03-05T06:39:53.284Z,98759.63
2019-03-05T06:42:56.498Z,98764.58
2019-03-05T06:45:59.727Z,98767.42
2019-03-05T06:49:02.966Z,98762.75
2019-03-05T06:52:06.264Z,98771.14
2019-03-05T06:55:10.729Z,98774.70
2019-03-05T06:58:14.036Z,98767.36
2019-03-05T07:01:17.029Z,98768.39
2019-03-05T07:04:20.530Z,98790.22
2019-03-05T07:07:25.004Z,98786.55
2019-03-05T07:10:47.405Z,98800.44
2019-03-05T07:13:50.856Z,98782.04
2019-03-05T07:17:09.990Z,98791.66
2019-03-05T07:20:55.535Z,98790.86
2019-03-05T07:24:21.244Z,98801.69
2019-03-05T07:27:40.038Z,98796.50
2019-03-05T07:30:43.239Z,98801.88
2019-03-05T07:33:46.178Z,98805.23
2019-03-05T07:36:49.408Z,98805.37
2019-03-05T07:39:52.666Z,98804.16
2019-03-05T07:42:55.656Z,98809.53
2019-03-05T07:45:58.840Z,98824.07
2019-03-05T07:49:02.159Z,98825.48
2019-03-05T07:52:05.480Z,98831.50
2019-03-05T07:55:14.652Z,98837.66
2019-03-05T07:58:18.927Z,98838.67
2019-03-05T08:01:22.722Z,98843.89
2019-03-05T08:04:25.992Z,98849.30
2019-03-05T08:07:29.183Z,98850.13
2019-03-05T08:10:32.824Z,98858.47
2019-03-05T08:14:13.710Z,98859.71
2019-03-05T08:17:17.254Z,98857.67
2019-03-05T08:20:20.193Z,98869.59
2019-03-05T08:23:23.497Z,98874.41
2019-03-05T08:26:26.829Z,98871.89
2019-03-05T08:29:30.943Z,98880.91
2019-03-05T08:32:33.894Z,98882.46
2019-03-05T08:35:37.214Z,98883.87
2019-03-05T08:38:40.124Z,98888.76
2019-03-05T08:41:43.172Z,98891.44
2019-03-05T08:44:50.682Z,98901.41
2019-03-05T08:47:52.835Z,98893.98
2019-03-05T08:50:55.761Z,98905.38
2019-03-05T08:53:58.963Z,98903.45
2019-03-05T08:57:02.178Z,98905.08
2019-03-05T09:00:09.013Z,98912.67
2019-03-05T09:03:18.262Z,98907.03
2019-03-05T09:06:21.652Z,98919.54
2019-03-05T09:09:24.872Z,98923.09
2019-03-05T09:12:28.527Z,98925.74
2019-03-05T09:15:31.714Z,98929.80
2019-03-05T09:18:34.963Z,98932.73
2019-03-05T09:21:38.443Z,98930.33
2019-03-05T09:24:41.362Z,98936.48
2019-03-05T09:27:44.866Z,98936.34
2019-03-05T09:30:48.126Z,98945.78
2019-03-05T09:33:51.339Z,98938.91
2019-03-05T09:36:54.660Z,98939.77
2019-03-05T09:39:59.054Z,98934.23
2019-03-05T09:43:02.326Z,98933.13
2019-03-05T09:46:05.617Z,98940.00
2019-03-05T09:49:08.580Z,98939.34
2019-03-05T09:52:11.780Z,98942.90
2019-03-05T09:55:19.221Z,98948.45
2019-03-05T09:58:22.250Z,98952.39
2019-03-05T10:01:26.271Z,98950.41
2019-03-05T10:04:29.312Z,98949.19
2019-03-05T10:07:32.838Z,98962.25
2019-03-05T10:10:35.869Z,98958.36
2019-03-05T10:13:39.157Z,98957.27
2019-03-05T10:16:42.503Z,98960.41
2019-03-05T10:19:45.808Z,98960.25
2019-03-05T10:22:50.412Z,98968.23
2019-03-05T10:25:54.642Z,98968.79
2019-03-05T10:28:57.968Z,98975.07
2019-03-05T10:32:01.315Z,98984.89
2019-03-05T10:35:04.660Z,98990.28
2019-03-05T10:38:09.108Z,98991.25
2019-03-05T10:41:12.174Z,98980.28
2019-03-05T10:44:15.415Z,98994.53
2019-03-05T10:47:18.427Z,98997.45
2019-03-05T10:50:24.335Z,98999.47
2019-03-05T10:53:27.742Z,99007.53
2019-03-05T10:56:31.224Z,99002.48
2019-03-05T10:59:34.525Z,99007.34
2019-03-05T11:02:37.540Z,99003.97
2019-03-05T11:05:40.765Z,99008.55
2019-03-05T11:08:43.688Z,99002.45
2019-03-05T11:11:46.627Z,99017.27
2019-03-05T11:14:49.569Z,99016.48
2019-03-05T11:17:53.088Z,99018.55
2019-03-05T11:20:56.367Z,99021.48
2019-03-05T11:23:59.920Z,99013.19
2019-03-05T11:27:03.014Z,99018.98
2019-03-05T11:30:10.005Z,99022.65
2019-03-05T11:33:13.692Z,99028.19
2019-03-05T11:36:16.851Z,99024.52
2019-03-05T11:39:20.124Z,99021.19
2019-03-05T11:42:23.610Z,99029.47
2019-03-05T11:45:26.868Z,99025.45
2019-03-05T11:48:29.803Z,99039.03
2019-03-05T11:51:32.723Z,99045.79
2019-03-05T11:54:35.950Z,99044.24
2019-03-05T11:57:39.151Z,99038.17
2019-03-05T12:01:14.713Z,99043.48
2019-03-05T12:04:18.437Z,99050.95
2019-03-05T12:07:21.628Z,99048.84
2019-03-05T12:10:25.257Z,99056.28
2019-03-05T12:13:29.052Z,99055.28
2019-03-05T12:16:31.977Z,99049.78
2019-03-05T12:19:35.027Z,99046.44
2019-03-05T12:22:38.339Z,99048.76
2019-03-05T12:25:41.440Z,99049.17
2019-03-05T12:28:44.646Z,99057.73
2019-03-05T12:31:47.574Z,99056.91
2019-03-05T12:34:50.542Z,99053.59
2019-03-05T12:37:53.467Z,99048.05
2019-03-05T12:40:56.677Z,99051.87
2019-03-05T12:43:59.633Z,99054.29
2019-03-05T12:47:02.837Z,99065.68
2019-03-05T12:50:10.245Z,99068.92
2019-03-05T12:53:15.881Z,99064.44
2019-03-05T12:56:23.899Z,99068.36
2019-03-05T12:59:23.043Z,99067.74
2019-03-05T13:02:26.242Z,99070.81
2019-03-05T13:05:29.595Z,99067.43
2019-03-05T13:08:32.532Z,99061.48
2019-03-05T13:11:35.497Z,99057.67
2019-03-05T13:14:42.605Z,99062.93
2019-03-05T13:17:47.025Z,99065.17
2019-03-05T13:20:49.078Z,99071.17
2019-03-05T13:23:52.011Z,99073.20
2019-03-05T13:26:55.266Z,99077.78
2019-03-05T13:29:58.761Z,99089.16
2019-03-05T13:33:02.141Z,99088.27
2019-03-05T13:36:12.177Z,99075.73
2019-03-05T13:39:18.090Z,99078.73
2019-03-05T13:42:21.700Z,99081.22
2019-03-05T13:45:25.238Z,99087.94
2019-03-05T13:49:04.738Z,99087.67
2019-03-05T13:53:02.899Z,99100.34
2019-03-05T13:57:06.220Z,99088.23
2019-03-05T14:00:11.142Z,99109.34
2019-03-05T14:03:25.117Z,99111.00
2019-03-05T14:07:37.257Z,99124.77
2019-03-05T14:10:41.507Z,99135.77
2019-03-05T14:13:44.698Z,99133.41
2019-03-05T14:16:51.477Z,99123.53
2019-03-05T14:19:54.424Z,99135.42
2019-03-05T14:22:57.625Z,99133.71
2019-03-05T14:26:00.574Z,99149.23
2019-03-05T14:29:03.570Z,99150.05
2019-03-05T14:32:07.695Z,99141.59
2019-03-05T14:35:18.070Z,99144.10
2019-03-05T14:38:21.394Z,99151.69
2019-03-05T14:41:25.151Z,99150.47
2019-03-05T14:44:39.144Z,99143.77
2019-03-05T14:47:33.748Z,99145.58
2019-03-05T14:50:37.070Z,99155.44
2019-03-05T14:53:40.014Z,99157.16
2019-03-05T14:56:42.931Z,99152.35
2019-03-05T14:59:47.438Z,99165.72
2019-03-05T15:02:51.481Z,99159.81
2019-03-05T15:05:54.698Z,99156.88
2019-03-05T15:08:57.671Z,99153.09
2019-03-05T15:12:00.929Z,99168.33
2019-03-05T15:15:07.996Z,99171.94
2019-03-05T15:18:11.197Z,99180.84
2019-03-05T15:21:14.566Z,99184.81
2019-03-05T15:24:18.069Z,99193.16
2019-03-05T15:27:21.274Z,99189.22
2019-03-05T15:30:24.639Z,99185.05
2019-03-05T15:33:27.620Z,99196.02
2019-03-05T15:36:31.237Z,99199.83
2019-03-05T15:39:36.163Z,99198.52
2019-03-05T15:42:39.427Z,99204.44
2019-03-05T15:45:42.608Z,99202.47
2019-03-05T15:48:46.123Z,99199.78
2019-03-05T15:51:49.418Z,99201.49
2019-03-05T15:54:52.326Z,99191.84
2019-03-05T15:57:55.518Z,99191.20
2019-03-05T16:00:59.104Z,99188.89
2019-03-05T16:04:02.062Z,99189.47
2019-03-05T16:07:10.822Z,99188.14
2019-03-05T16:10:17.159Z,99199.77
2019-03-05T16:13:20.724Z,99199.77
2019-03-05T16:16:23.979Z,99209.98
2019-03-05T16:19:26.905Z,99208.10
2019-03-05T16:22:29.897Z,99215.41
2019-03-05T16:25:32.771Z,99220.27
2019-03-05T16:28:39.147Z,99224.42
2019-03-05T16:32:09.935Z,99228.83
2019-03-05T16:35:20.147Z,99226.05
2019-03-05T16:38:45.326Z,99230.56
2019-03-05T16:42:22.449Z,99236.16
2019-03-05T16:45:54.339Z,99242.16
2019-03-05T16:49:15.985Z,99236.83
2019-03-05T16:52:41.119Z,99239.74
2019-03-05T16:56:00.721Z,99238.20
2019-03-05T16:59:21.939Z,99248.17
2019-03-05T17:02:54.366Z,99250.41
2019-03-05T17:06:13.364Z,99254.33
2019-03-05T17:09:34.742Z,99264.67
2019-03-05T17:12:38.456Z,99273.03
2019-03-05T17:15:41.774Z,99272.17
2019-03-05T17:18:44.784Z,99275.53
2019-03-05T17:21:48.145Z,99281.59
2019-03-05T17:24:51.414Z,99285.36
2019-03-05T17:27:55.032Z,99284.00
2019-03-05T17:30:58.097Z,99293.01
2019-03-05T17:34:01.469Z,99302.53
2019-03-05T17:37:04.656Z,99303.10
2019-03-05T17:40:09.609Z,99300.14
2019-03-05T17:43:13.579Z,99302.07
2019-03-05T17:46:16.723Z,99306.72
2019-03-05T17:49:20.011Z,99306.13
2019-03-05T17:52:23.544Z,99305.34
2019-03-05T17:55:27.349Z,99309.78
2019-03-05T17:58:31.290Z,99310.02
2019-03-05T18:01:34.440Z,99317.73
2019-03-05T18:04:38.008Z,99327.38
2019-03-05T18:07:41.513Z,99335.95
2019-03-05T18:10:44.544Z,99344.30
2019-03-05T18:13:47.614Z,99345.70
2019-03-05T18:16:51.105Z,99347.88
2019-03-05T18:19:54.223Z,99349.06
2019-03-05T18:22:57.649Z,99340.23
2019-03-05T18:26:01.806Z,99344.02
2019-03-05T18:29:06.003Z,99351.36
2019-03-05T18:32:09.354Z,99352.81
2019-03-05T18:35:12.585Z,99350.87
2019-03-05T18:38:16.291Z,99356.61
2019-03-05T18:41:19.346Z,99358.48
2019-03-05T18:44:23.194Z,99358.63
2019-03-05T18:47:26.697Z,99364.53
2019-03-05T18:50:29.652Z,99368.98
2019-03-05T18:53:33.437Z,99375.25
2019-03-05T18:56:36.408Z,99383.37
2019-03-05T18:59:39.450Z,99378.48
2019-03-05T19:02:42.627Z,99386.13
2019-03-05T19:05:45.631Z,99377.58
2019-03-05T19:08:49.000Z,99384.36
2019-03-05T19:11:52.406Z,99390.96
2019-03-05T19:14:55.813Z,99385.14
2019-03-05T19:18:03.668Z,99382.47
2019-03-05T19:21:06.775Z,99390.89
2019-03-05T19:24:10.520Z,99384.42
2019-03-05T19:27:13.733Z,99388.86
2019-03-05T19:30:20.296Z,99397.43
2019-03-05T19:33:23.941Z,99402.97
2019-03-05T19:36:27.461Z,99406.92
2019-03-05T19:39:30.766Z,99414.35
2019-03-05T19:42:33.983Z,99416.03
2019-03-05T19:45:37.344Z,99411.98
2019-03-05T19:48:40.428Z,99417.51
2019-03-05T19:51:43.376Z,99415.80
2019-03-05T19:54:46.335Z,99419.91
2019-03-05T19:57:49.742Z,99429.70
2019-03-05T20:01:15.069Z,99424.81
2019-03-05T20:04:18.388Z,99428.59
2019-03-05T20:07:21.385Z,99429.01
2019-03-05T20:10:24.887Z,99428.32
2019-03-05T20:13:28.425Z,99430.53
2019-03-05T20:16:31.809Z,99419.63
2019-03-05T20:19:35.413Z,99421.11
2019-03-05T20:22:39.325Z,99424.43
2019-03-05T20:25:42.631Z,99422.80
2019-03-05T20:28:45.760Z,99420.28
2019-03-05T20:31:49.044Z,99423.22
2019-03-05T20:34:52.662Z,99415.30
2019-03-05T20:37:55.991Z,99420.92
2019-03-05T20:40:59.948Z,99420.91
2019-03-05T20:44:03.495Z,99427.02
2019-03-05T20:47:07.749Z,99424.61
2019-03-05T20:50:11.926Z,99420.81
2019-03-05T20:53:15.036Z,99419.92
2019-03-05T20:56:18.538Z,99417.59
2019-03-05T20:59:21.951Z,99418.16
2019-03-05T21:02:25.370Z,99428.48
2019-03-05T21:05:32.019Z,99424.71
2019-03-05T21:08:35.035Z,99421.68
2019-03-05T21:11:38.075Z,99426.05
2019-03-05T21:14:41.417Z,99426.28
2019-03-05T21:17:44.501Z,99430.25
2019-03-05T21:20:47.754Z,99437.67
2019-03-05T21:23:51.442Z,99435.23
2019-03-05T21:26:55.103Z,99433.66
2019-03-05T21:29:58.805Z,99434.36
2019-03-05T21:33:02.008Z,99440.12
2019-03-05T21:36:05.821Z,99431.54
2019-03-05T21:39:15.488Z,99433.41
2019-03-05T21:42:19.215Z,99427.58
2019-03-05T21:45:29.688Z,99432.76
2019-03-05T21:48:32.721Z,99431.62
2019-03-05T21:51:36.058Z,99436.78
2019-03-05T21:54:39.745Z,99429.31
2019-03-05T21:57:43.273Z,99433.54
2019-03-05T22:00:46.583Z,99432.45
2019-03-05T22:03:49.995Z,99440.50
2019-03-05T22:06:54.301Z,99445.17
2019-03-05T22:09:57.907Z,99445.89
2019-03-05T22:13:00.827Z,99444.14
2019-03-05T22:16:04.128Z,99448.58
2019-03-05T22:19:07.712Z,99442.84
2019-03-05T22:22:11.336Z,99444.78
2019-03-05T22:25:16.420Z,99443.60
2019-03-05T22:28:19.422Z,99440.20
2019-03-05T22:31:22.375Z,99431.31
2019-03-05T22:34:25.778Z,99439.44
2019-03-05T22:37:29.308Z,99436.27
2019-03-05T22:40:32.245Z,99440.42
2019-03-05T22:43:35.512Z,99433.84
2019-03-05T22:46:39.691Z,99432.11
2019-03-05T22:49:42.641Z,99430.05
2019-03-05T22:52:46.150Z,99430.89
2019-03-05T22:55:49.120Z,99425.97
2019-03-05T22:58:52.384Z,99427.52
2019-03-05T23:01:55.928Z,99427.30
2019-03-05T23:04:59.657Z,99440.64
2019-03-05T23:08:03.085Z,99439.44
2019-03-05T23:11:06.201Z,99443.04
2019-03-05T23:14:09.517Z,99441.20
2019-03-05T23:17:13.418Z,99429.05
2019-03-05T23:20:16.703Z,99420.05
2019-03-05T23:23:20.668Z,99420.34
2019-03-05T23:26:23.728Z,99419.38
2019-03-05T23:29:36.354Z,99414.20
2019-03-05T23:32:39.443Z,99408.38
2019-03-05T23:35:43.246Z,99409.52
2019-03-05T23:38:46.720Z,99406.07
2019-03-05T23:41:50.409Z,99407.28
2019-03-05T23:44:53.607Z,99398.88
2019-03-05T23:47:56.820Z,99403.55
2019-03-05T23:51:00.071Z,99401.79
2019-03-05T23:54:03.242Z,99399.27
2019-03-05T23:57:06.995Z,99397.97
